BRN120 LEZL-LEPA
Flight info
| Callsign | BRN120 |
|---|---|
| Flight time | 1h 16m |
| Altitude | 38000 |
| Route | MAR DCT MGA DCT RIXUR DCT UNTOS DCT ROLAS DCT TOSGA DCT RESTU DCT ALT DCT SUMMO DCT MITOS DCT BRUNO DCT RUXET |
| Aircraft | A20N/M-SDE2E3FGHIRWXY/LB1 |
Departure
| Time | 2026-04-18 10:26 |
|---|---|
| Airport | Seville Airport (LEZL) |
Arrival
| Time | 2026-04-18 11:42 |
|---|---|
| Airport | Palma de Mallorca Airport (LEPA) |
| Time | Latitude | Longitude | Altitude | Speed | Heading |
|---|---|---|---|---|---|
| 2026-04-18 09:36 | 37.42279 | -5.89884 | 97 ft | 0 kts | 315° |
| 2026-04-18 10:16 | 37.42277 | -5.89881 | 96 ft | 2 kts | 314° |
| 2026-04-18 10:16 | 37.42264 | -5.89864 | 97 ft | 3 kts | 310° |
| 2026-04-18 10:16 | 37.42252 | -5.89844 | 97 ft | 3 kts | 303° |
| 2026-04-18 10:16 | 37.42242 | -5.89823 | 95 ft | 3 kts | 289° |
| 2026-04-18 10:17 | 37.42238 | -5.89800 | 97 ft | 3 kts | 257° |
| 2026-04-18 10:17 | 37.42242 | -5.89785 | 96 ft | 1 kts | 225° |
| 2026-04-18 10:17 | 37.42245 | -5.89782 | 97 ft | 0 kts | 225° |
| 2026-04-18 10:20 | 37.42227 | -5.89803 | 99 ft | 6 kts | 223° |
| 2026-04-18 10:20 | 37.42190 | -5.89850 | 97 ft | 8 kts | 226° |
| 2026-04-18 10:21 | 37.42154 | -5.89897 | 97 ft | 7 kts | 225° |
| 2026-04-18 10:21 | 37.42120 | -5.89937 | 97 ft | 6 kts | 223° |
| 2026-04-18 10:21 | 37.42089 | -5.89975 | 98 ft | 6 kts | 225° |
| 2026-04-18 10:21 | 37.42063 | -5.90010 | 98 ft | 5 kts | 233° |
| 2026-04-18 10:22 | 37.42052 | -5.90046 | 99 ft | 4 kts | 255° |
| 2026-04-18 10:22 | 37.42046 | -5.90068 | 97 ft | 2 kts | 243° |
| 2026-04-18 10:22 | 37.41995 | -5.90108 | 101 ft | 9 kts | 223° |
| 2026-04-18 10:22 | 37.41981 | -5.90172 | 98 ft | 9 kts | 268° |
| 2026-04-18 10:23 | 37.41980 | -5.90311 | 98 ft | 20 kts | 268° |
| 2026-04-18 10:23 | 37.41979 | -5.90482 | 97 ft | 20 kts | 270° |
| 2026-04-18 10:23 | 37.41978 | -5.90655 | 96 ft | 20 kts | 270° |
| 2026-04-18 10:23 | 37.41978 | -5.90809 | 95 ft | 16 kts | 269° |
| 2026-04-18 10:24 | 37.41964 | -5.90948 | 97 ft | 16 kts | 246° |
| 2026-04-18 10:24 | 37.41909 | -5.91071 | 94 ft | 16 kts | 239° |
| 2026-04-18 10:24 | 37.41845 | -5.91181 | 92 ft | 14 kts | 204° |
| 2026-04-18 10:24 | 37.41789 | -5.91139 | 94 ft | 9 kts | 99° |
| 2026-04-18 10:25 | 37.41789 | -5.91105 | 93 ft | 18 kts | 88° |
| 2026-04-18 10:25 | 37.41790 | -5.90663 | 98 ft | 82 kts | 90° |
| 2026-04-18 10:25 | 37.41795 | -5.89705 | 101 ft | 136 kts | 90° |
| 2026-04-18 10:25 | 37.41798 | -5.88375 | 263 ft | 159 kts | 88° |
| 2026-04-18 10:26 | 37.41827 | -5.86932 | 564 ft | 171 kts | 89° |
| 2026-04-18 10:26 | 37.41806 | -5.85461 | 1174 ft | 159 kts | 92° |
| 2026-04-18 10:26 | 37.41765 | -5.84044 | 1630 ft | 176 kts | 92° |
| 2026-04-18 10:26 | 37.41750 | -5.82362 | 1885 ft | 209 kts | 86° |
| 2026-04-18 10:27 | 37.41982 | -5.80409 | 2149 ft | 242 kts | 79° |
| 2026-04-18 10:27 | 37.42369 | -5.78232 | 2737 ft | 258 kts | 78° |
| 2026-04-18 10:27 | 37.42699 | -5.75985 | 3528 ft | 263 kts | 88° |
| 2026-04-18 10:27 | 37.42758 | -5.73682 | 4366 ft | 265 kts | 92° |
| 2026-04-18 10:28 | 37.42743 | -5.71373 | 5147 ft | 270 kts | 94° |
| 2026-04-18 10:28 | 37.42715 | -5.68958 | 5949 ft | 275 kts | 94° |
| 2026-04-18 10:28 | 37.42688 | -5.66581 | 6839 ft | 275 kts | 92° |
| 2026-04-18 10:28 | 37.42665 | -5.64162 | 7677 ft | 278 kts | 93° |
| 2026-04-18 10:29 | 37.42641 | -5.61715 | 8506 ft | 282 kts | 92° |
| 2026-04-18 10:29 | 37.42618 | -5.59279 | 9324 ft | 286 kts | 93° |
| 2026-04-18 10:29 | 37.42595 | -5.56761 | 10150 ft | 290 kts | 93° |
| 2026-04-18 10:29 | 37.42569 | -5.54171 | 10681 ft | 307 kts | 93° |
| 2026-04-18 10:30 | 37.42540 | -5.51377 | 11043 ft | 328 kts | 92° |
| 2026-04-18 10:30 | 37.42511 | -5.48454 | 11684 ft | 338 kts | 92° |
| 2026-04-18 10:30 | 37.42479 | -5.45471 | 12485 ft | 343 kts | 93° |
| 2026-04-18 10:30 | 37.42216 | -5.42492 | 13287 ft | 344 kts | 105° |
| 2026-04-18 10:31 | 37.41343 | -5.39714 | 14072 ft | 344 kts | 122° |
| 2026-04-18 10:31 | 37.39869 | -5.37317 | 14705 ft | 349 kts | 134° |
| 2026-04-18 10:31 | 37.38181 | -5.35132 | 15376 ft | 353 kts | 137° |
| 2026-04-18 10:31 | 37.36410 | -5.32920 | 16033 ft | 359 kts | 136° |
| 2026-04-18 10:32 | 37.34623 | -5.30683 | 16651 ft | 366 kts | 136° |
| 2026-04-18 10:32 | 37.32810 | -5.28404 | 17329 ft | 371 kts | 136° |
| 2026-04-18 10:32 | 37.30954 | -5.26062 | 18015 ft | 375 kts | 136° |
| 2026-04-18 10:32 | 37.29124 | -5.23747 | 18618 ft | 381 kts | 136° |
| 2026-04-18 10:33 | 37.27243 | -5.21369 | 19168 ft | 386 kts | 136° |
| 2026-04-18 10:33 | 37.25321 | -5.18938 | 19858 ft | 387 kts | 136° |
| 2026-04-18 10:33 | 37.23420 | -5.16534 | 20414 ft | 392 kts | 136° |
| 2026-04-18 10:33 | 37.21512 | -5.14123 | 20972 ft | 396 kts | 137° |
| 2026-04-18 10:34 | 37.19539 | -5.11633 | 21540 ft | 400 kts | 137° |
| 2026-04-18 10:34 | 37.17570 | -5.09150 | 22148 ft | 402 kts | 136° |
| 2026-04-18 10:34 | 37.15620 | -5.06691 | 22819 ft | 403 kts | 136° |
| 2026-04-18 10:34 | 37.13610 | -5.04159 | 23383 ft | 407 kts | 137° |
| 2026-04-18 10:35 | 37.11606 | -5.01636 | 23856 ft | 412 kts | 137° |
| 2026-04-18 10:35 | 37.09595 | -4.99108 | 24295 ft | 415 kts | 137° |
| 2026-04-18 10:35 | 37.07532 | -4.96503 | 24781 ft | 417 kts | 136° |
| 2026-04-18 10:35 | 37.05637 | -4.93722 | 25188 ft | 423 kts | 128° |
| 2026-04-18 10:36 | 37.04034 | -4.90615 | 25569 ft | 428 kts | 122° |
| 2026-04-18 10:36 | 37.02567 | -4.87353 | 26000 ft | 432 kts | 120° |
| 2026-04-18 10:36 | 37.01186 | -4.84050 | 26397 ft | 435 kts | 118° |
| 2026-04-18 10:36 | 36.99796 | -4.80631 | 26821 ft | 438 kts | 118° |
| 2026-04-18 10:37 | 36.98428 | -4.77261 | 27222 ft | 440 kts | 118° |
| 2026-04-18 10:37 | 36.97010 | -4.73800 | 27607 ft | 443 kts | 118° |
| 2026-04-18 10:37 | 36.95591 | -4.70378 | 27992 ft | 446 kts | 119° |
| 2026-04-18 10:37 | 36.94146 | -4.66927 | 28375 ft | 449 kts | 119° |
| 2026-04-18 10:38 | 36.92702 | -4.63503 | 28726 ft | 452 kts | 119° |
| 2026-04-18 10:38 | 36.91228 | -4.60020 | 29080 ft | 455 kts | 120° |
| 2026-04-18 10:38 | 36.89722 | -4.56468 | 29403 ft | 459 kts | 119° |
| 2026-04-18 10:38 | 36.88224 | -4.52941 | 29710 ft | 462 kts | 119° |
| 2026-04-18 10:39 | 36.86714 | -4.49387 | 30069 ft | 464 kts | 119° |
| 2026-04-18 10:39 | 36.85302 | -4.45746 | 30371 ft | 468 kts | 113° |
| 2026-04-18 10:39 | 36.84294 | -4.41860 | 30662 ft | 471 kts | 104° |
| 2026-04-18 10:39 | 36.83812 | -4.37812 | 30972 ft | 473 kts | 93° |
| 2026-04-18 10:40 | 36.83921 | -4.33725 | 31396 ft | 471 kts | 82° |
| 2026-04-18 10:40 | 36.84610 | -4.29794 | 31813 ft | 468 kts | 71° |
| 2026-04-18 10:40 | 36.85832 | -4.25993 | 32231 ft | 465 kts | 64° |
| 2026-04-18 10:40 | 36.87219 | -4.22341 | 32614 ft | 464 kts | 62° |
| 2026-04-18 10:41 | 36.88671 | -4.18756 | 32978 ft | 463 kts | 62° |
| 2026-04-18 10:41 | 36.90131 | -4.15233 | 33339 ft | 462 kts | 61° |
| 2026-04-18 10:41 | 36.91626 | -4.11635 | 33718 ft | 461 kts | 62° |
| 2026-04-18 10:41 | 36.93098 | -4.08068 | 34069 ft | 460 kts | 62° |
| 2026-04-18 10:42 | 36.94550 | -4.04514 | 34382 ft | 459 kts | 62° |
| 2026-04-18 10:42 | 36.95992 | -4.00954 | 34634 ft | 459 kts | 62° |
| 2026-04-18 10:42 | 36.97428 | -3.97387 | 34891 ft | 459 kts | 62° |
| 2026-04-18 10:42 | 36.98857 | -3.93828 | 35135 ft | 459 kts | 62° |
| 2026-04-18 10:43 | 37.00286 | -3.90256 | 35384 ft | 458 kts | 62° |
| 2026-04-18 10:43 | 37.01713 | -3.86688 | 35634 ft | 458 kts | 62° |
| 2026-04-18 10:43 | 37.03138 | -3.83121 | 35856 ft | 458 kts | 62° |
| 2026-04-18 10:43 | 37.04564 | -3.79547 | 36095 ft | 458 kts | 62° |
| 2026-04-18 10:44 | 37.05983 | -3.75991 | 36176 ft | 460 kts | 62° |
| 2026-04-18 10:44 | 37.08833 | -3.68836 | 36210 ft | 458 kts | 62° |
| 2026-04-18 10:45 | 37.11189 | -3.62908 | 36213 ft | 457 kts | 63° |
| 2026-04-18 10:45 | 37.14024 | -3.55762 | 36210 ft | 457 kts | 63° |
| 2026-04-18 10:46 | 37.16853 | -3.48611 | 36213 ft | 457 kts | 63° |
| 2026-04-18 10:46 | 37.19693 | -3.41418 | 36209 ft | 458 kts | 63° |
| 2026-04-18 10:47 | 37.22513 | -3.34259 | 36200 ft | 457 kts | 63° |
| 2026-04-18 10:47 | 37.25324 | -3.27108 | 36198 ft | 457 kts | 63° |
| 2026-04-18 10:48 | 37.28119 | -3.19979 | 36195 ft | 458 kts | 63° |
| 2026-04-18 10:48 | 37.30924 | -3.12805 | 36187 ft | 458 kts | 63° |
| 2026-04-18 10:49 | 37.33743 | -3.05579 | 36185 ft | 457 kts | 63° |
| 2026-04-18 10:49 | 37.36521 | -2.98443 | 36184 ft | 457 kts | 63° |
| 2026-04-18 10:50 | 37.39301 | -2.91284 | 36176 ft | 456 kts | 63° |
| 2026-04-18 10:50 | 37.42085 | -2.84100 | 36177 ft | 456 kts | 63° |
| 2026-04-18 10:51 | 37.44863 | -2.76913 | 36179 ft | 456 kts | 63° |
| 2026-04-18 10:51 | 37.47635 | -2.69724 | 36180 ft | 457 kts | 63° |
| 2026-04-18 10:52 | 37.50399 | -2.62540 | 36178 ft | 456 kts | 63° |
| 2026-04-18 10:52 | 37.53161 | -2.55345 | 36183 ft | 456 kts | 63° |
| 2026-04-18 10:53 | 37.55912 | -2.48162 | 36181 ft | 456 kts | 63° |
| 2026-04-18 10:53 | 37.58663 | -2.40962 | 36183 ft | 456 kts | 63° |
| 2026-04-18 10:54 | 37.61405 | -2.33768 | 36183 ft | 456 kts | 63° |
| 2026-04-18 10:54 | 37.64154 | -2.26544 | 36188 ft | 455 kts | 64° |
| 2026-04-18 10:55 | 37.66883 | -2.19358 | 36188 ft | 454 kts | 64° |
| 2026-04-18 10:55 | 37.69604 | -2.12178 | 36182 ft | 454 kts | 64° |
| 2026-04-18 10:56 | 37.72326 | -2.04978 | 36185 ft | 454 kts | 64° |
| 2026-04-18 10:56 | 37.75050 | -1.97757 | 36182 ft | 455 kts | 64° |
| 2026-04-18 10:57 | 37.77763 | -1.90546 | 36183 ft | 454 kts | 64° |
| 2026-04-18 10:57 | 37.80474 | -1.83324 | 36183 ft | 454 kts | 64° |
| 2026-04-18 10:58 | 37.83179 | -1.76103 | 36182 ft | 454 kts | 64° |
| 2026-04-18 10:58 | 37.85879 | -1.68876 | 36182 ft | 454 kts | 64° |
| 2026-04-18 10:59 | 37.88574 | -1.61645 | 36176 ft | 454 kts | 64° |
| 2026-04-18 10:59 | 37.91265 | -1.54407 | 36178 ft | 454 kts | 64° |
| 2026-04-18 11:00 | 37.93951 | -1.47162 | 36179 ft | 454 kts | 64° |
| 2026-04-18 11:00 | 37.96634 | -1.39906 | 36182 ft | 455 kts | 64° |
| 2026-04-18 11:01 | 37.99314 | -1.32641 | 36175 ft | 455 kts | 64° |
| 2026-04-18 11:01 | 38.01990 | -1.25370 | 36173 ft | 455 kts | 64° |
| 2026-04-18 11:02 | 38.05990 | -1.14471 | 36174 ft | 455 kts | 64° |
| 2026-04-18 11:02 | 38.08656 | -1.07182 | 36173 ft | 455 kts | 64° |
| 2026-04-18 11:03 | 38.11317 | -0.99891 | 36176 ft | 455 kts | 64° |
| 2026-04-18 11:03 | 38.13975 | -0.92589 | 36178 ft | 455 kts | 65° |
| 2026-04-18 11:04 | 38.16625 | -0.85294 | 36178 ft | 455 kts | 65° |
| 2026-04-18 11:04 | 38.19279 | -0.77969 | 36191 ft | 455 kts | 65° |
| 2026-04-18 11:05 | 38.21925 | -0.70648 | 36183 ft | 456 kts | 65° |
| 2026-04-18 11:05 | 38.24569 | -0.63314 | 36184 ft | 456 kts | 65° |
| 2026-04-18 11:06 | 38.27193 | -0.55956 | 36184 ft | 456 kts | 66° |
| 2026-04-18 11:06 | 38.29625 | -0.48509 | 36182 ft | 456 kts | 68° |
| 2026-04-18 11:07 | 38.31983 | -0.41018 | 36185 ft | 456 kts | 68° |
| 2026-04-18 11:07 | 38.34350 | -0.33509 | 36183 ft | 456 kts | 68° |
| 2026-04-18 11:08 | 38.36739 | -0.26028 | 36185 ft | 456 kts | 67° |
| 2026-04-18 11:08 | 38.39212 | -0.18582 | 36182 ft | 456 kts | 66° |
| 2026-04-18 11:09 | 38.41702 | -0.11143 | 36179 ft | 456 kts | 66° |
| 2026-04-18 11:09 | 38.44185 | -0.03688 | 36182 ft | 456 kts | 66° |
| 2026-04-18 11:10 | 38.46621 | 0.03757 | 36188 ft | 456 kts | 67° |
| 2026-04-18 11:10 | 38.49031 | 0.11268 | 36183 ft | 456 kts | 67° |
| 2026-04-18 11:11 | 38.51432 | 0.18784 | 36186 ft | 456 kts | 67° |
| 2026-04-18 11:11 | 38.53824 | 0.26275 | 36185 ft | 456 kts | 67° |
| 2026-04-18 11:12 | 38.56222 | 0.33796 | 36187 ft | 456 kts | 67° |
| 2026-04-18 11:12 | 38.58613 | 0.41312 | 36188 ft | 456 kts | 67° |
| 2026-04-18 11:13 | 38.61000 | 0.48834 | 36187 ft | 456 kts | 67° |
| 2026-04-18 11:13 | 38.63375 | 0.56350 | 36186 ft | 456 kts | 67° |
| 2026-04-18 11:14 | 38.65751 | 0.63886 | 36192 ft | 456 kts | 67° |
| 2026-04-18 11:14 | 38.67381 | 0.71709 | 36188 ft | 457 kts | 81° |
| 2026-04-18 11:15 | 38.68275 | 0.79756 | 36188 ft | 458 kts | 82° |
| 2026-04-18 11:15 | 38.69151 | 0.87833 | 36189 ft | 458 kts | 82° |
| 2026-04-18 11:16 | 38.70026 | 0.95844 | 36193 ft | 458 kts | 82° |
| 2026-04-18 11:16 | 38.70909 | 1.03958 | 36189 ft | 458 kts | 82° |
| 2026-04-18 11:17 | 38.71785 | 1.12037 | 36187 ft | 458 kts | 82° |
| 2026-04-18 11:17 | 38.72653 | 1.20101 | 36188 ft | 457 kts | 82° |
| 2026-04-18 11:18 | 38.73517 | 1.28176 | 36184 ft | 457 kts | 82° |
| 2026-04-18 11:18 | 38.74373 | 1.36229 | 35744 ft | 454 kts | 82° |
| 2026-04-18 11:19 | 38.74796 | 1.40233 | 35226 ft | 453 kts | 82° |
| 2026-04-18 11:19 | 38.75219 | 1.44241 | 34682 ft | 453 kts | 82° |
| 2026-04-18 11:19 | 38.75639 | 1.48236 | 34182 ft | 452 kts | 82° |
| 2026-04-18 11:19 | 38.76055 | 1.52219 | 33674 ft | 450 kts | 82° |
| 2026-04-18 11:20 | 38.76469 | 1.56184 | 33218 ft | 446 kts | 82° |
| 2026-04-18 11:20 | 38.76875 | 1.60091 | 32777 ft | 442 kts | 82° |
| 2026-04-18 11:20 | 38.77279 | 1.63990 | 32332 ft | 439 kts | 82° |
| 2026-04-18 11:20 | 38.77678 | 1.67855 | 31892 ft | 435 kts | 82° |
| 2026-04-18 11:21 | 38.78072 | 1.71681 | 31467 ft | 432 kts | 82° |
| 2026-04-18 11:21 | 38.78463 | 1.75491 | 31047 ft | 429 kts | 82° |
| 2026-04-18 11:21 | 38.78848 | 1.79254 | 30624 ft | 426 kts | 82° |
| 2026-04-18 11:21 | 38.79230 | 1.83000 | 30201 ft | 422 kts | 82° |
| 2026-04-18 11:22 | 38.79608 | 1.86717 | 29728 ft | 419 kts | 82° |
| 2026-04-18 11:22 | 38.80070 | 1.90399 | 29245 ft | 416 kts | 75° |
| 2026-04-18 11:22 | 38.81150 | 1.93792 | 28751 ft | 410 kts | 57° |
| 2026-04-18 11:22 | 38.82776 | 1.96774 | 28310 ft | 406 kts | 51° |
| 2026-04-18 11:23 | 38.84503 | 1.99620 | 27874 ft | 402 kts | 50° |
| 2026-04-18 11:23 | 38.86225 | 2.02425 | 27447 ft | 399 kts | 50° |
| 2026-04-18 11:23 | 38.87936 | 2.05221 | 27027 ft | 396 kts | 50° |
| 2026-04-18 11:23 | 38.89628 | 2.07999 | 26611 ft | 393 kts | 51° |
| 2026-04-18 11:24 | 38.90738 | 2.09828 | 26340 ft | 392 kts | 51° |
| 2026-04-18 11:24 | 38.92944 | 2.13470 | 25808 ft | 388 kts | 51° |
| 2026-04-18 11:24 | 38.94590 | 2.16195 | 25411 ft | 385 kts | 51° |
| 2026-04-18 11:24 | 38.96225 | 2.18905 | 25023 ft | 382 kts | 51° |
| 2026-04-18 11:25 | 38.97847 | 2.21598 | 24639 ft | 380 kts | 51° |
| 2026-04-18 11:25 | 38.99461 | 2.24277 | 24261 ft | 377 kts | 51° |
| 2026-04-18 11:25 | 39.00538 | 2.26068 | 24006 ft | 376 kts | 51° |
| 2026-04-18 11:25 | 39.02132 | 2.28720 | 23597 ft | 373 kts | 51° |
| 2026-04-18 11:26 | 39.03713 | 2.31353 | 23218 ft | 369 kts | 51° |
| 2026-04-18 11:26 | 39.05273 | 2.33953 | 22818 ft | 365 kts | 51° |
| 2026-04-18 11:26 | 39.06797 | 2.36496 | 22401 ft | 362 kts | 51° |
| 2026-04-18 11:26 | 39.08348 | 2.39085 | 21981 ft | 359 kts | 51° |
| 2026-04-18 11:27 | 39.09846 | 2.41589 | 21578 ft | 356 kts | 51° |
| 2026-04-18 11:27 | 39.11351 | 2.44106 | 21179 ft | 353 kts | 51° |
| 2026-04-18 11:27 | 39.12865 | 2.46639 | 20820 ft | 349 kts | 51° |
| 2026-04-18 11:27 | 39.14302 | 2.49047 | 20596 ft | 340 kts | 51° |
| 2026-04-18 11:28 | 39.15804 | 2.51353 | 20278 ft | 335 kts | 42° |
| 2026-04-18 11:28 | 39.17613 | 2.53219 | 19905 ft | 331 kts | 34° |
| 2026-04-18 11:28 | 39.19501 | 2.54888 | 19534 ft | 328 kts | 33° |
| 2026-04-18 11:28 | 39.21383 | 2.56510 | 19165 ft | 325 kts | 33° |
| 2026-04-18 11:29 | 39.23285 | 2.58150 | 18734 ft | 325 kts | 33° |
| 2026-04-18 11:29 | 39.25142 | 2.59758 | 18220 ft | 324 kts | 33° |
| 2026-04-18 11:29 | 39.27025 | 2.61395 | 17593 ft | 321 kts | 33° |
| 2026-04-18 11:29 | 39.28871 | 2.63003 | 16971 ft | 318 kts | 33° |
| 2026-04-18 11:30 | 39.30692 | 2.64592 | 16385 ft | 315 kts | 33° |
| 2026-04-18 11:30 | 39.32494 | 2.66166 | 15839 ft | 310 kts | 34° |
| 2026-04-18 11:30 | 39.34220 | 2.67676 | 15542 ft | 292 kts | 33° |
| 2026-04-18 11:30 | 39.35888 | 2.69135 | 14790 ft | 297 kts | 34° |
| 2026-04-18 11:31 | 39.37602 | 2.70635 | 14127 ft | 299 kts | 34° |
| 2026-04-18 11:31 | 39.39317 | 2.72138 | 13518 ft | 297 kts | 34° |
| 2026-04-18 11:31 | 39.41019 | 2.73630 | 12917 ft | 293 kts | 34° |
| 2026-04-18 11:31 | 39.42738 | 2.75138 | 11506 ft | 310 kts | 34° |
| 2026-04-18 11:32 | 39.44496 | 2.76947 | 9765 ft | 335 kts | 42° |
| 2026-04-18 11:32 | 39.45994 | 2.79326 | 8629 ft | 341 kts | 61° |
| 2026-04-18 11:32 | 39.46834 | 2.82104 | 8223 ft | 325 kts | 69° |
| 2026-04-18 11:32 | 39.47572 | 2.84798 | 7940 ft | 305 kts | 67° |
| 2026-04-18 11:33 | 39.48331 | 2.87272 | 7692 ft | 287 kts | 65° |
| 2026-04-18 11:33 | 39.49116 | 2.89598 | 7297 ft | 279 kts | 63° |
| 2026-04-18 11:33 | 39.49932 | 2.91867 | 6697 ft | 278 kts | 62° |
| 2026-04-18 11:33 | 39.50775 | 2.94115 | 6224 ft | 273 kts | 62° |
| 2026-04-18 11:34 | 39.51591 | 2.96251 | 6004 ft | 255 kts | 61° |
| 2026-04-18 11:34 | 39.52359 | 2.98243 | 5585 ft | 246 kts | 62° |
| 2026-04-18 11:34 | 39.53126 | 3.00218 | 5076 ft | 242 kts | 61° |
| 2026-04-18 11:34 | 39.53877 | 3.02137 | 4579 ft | 241 kts | 60° |
| 2026-04-18 11:35 | 39.54847 | 3.03932 | 4127 ft | 242 kts | 43° |
| 2026-04-18 11:35 | 39.56244 | 3.05090 | 3785 ft | 239 kts | 19° |
| 2026-04-18 11:35 | 39.57830 | 3.05335 | 3467 ft | 224 kts | 353° |
| 2026-04-18 11:35 | 39.59250 | 3.04732 | 3140 ft | 215 kts | 330° |
| 2026-04-18 11:36 | 39.60349 | 3.03480 | 2828 ft | 208 kts | 307° |
| 2026-04-18 11:36 | 39.61181 | 3.01971 | 2713 ft | 201 kts | 308° |
| 2026-04-18 11:36 | 39.62039 | 3.00645 | 2681 ft | 182 kts | 310° |
| 2026-04-18 11:36 | 39.62806 | 2.99463 | 2670 ft | 162 kts | 309° |
| 2026-04-18 11:37 | 39.63458 | 2.98327 | 2688 ft | 155 kts | 306° |
| 2026-04-18 11:37 | 39.64009 | 2.97101 | 2686 ft | 155 kts | 292° |
| 2026-04-18 11:37 | 39.64233 | 2.95762 | 2698 ft | 155 kts | 271° |
| 2026-04-18 11:37 | 39.64060 | 2.94381 | 2684 ft | 155 kts | 251° |
| 2026-04-18 11:38 | 39.63600 | 2.93113 | 2700 ft | 156 kts | 240° |
| 2026-04-18 11:38 | 39.63030 | 2.91906 | 2687 ft | 157 kts | 238° |
| 2026-04-18 11:38 | 39.62460 | 2.90695 | 2609 ft | 158 kts | 239° |
| 2026-04-18 11:38 | 39.61884 | 2.89488 | 2394 ft | 157 kts | 239° |
| 2026-04-18 11:39 | 39.61313 | 2.88293 | 2174 ft | 155 kts | 238° |
| 2026-04-18 11:39 | 39.60749 | 2.87114 | 1960 ft | 153 kts | 238° |
| 2026-04-18 11:39 | 39.60192 | 2.85945 | 1753 ft | 152 kts | 239° |
| 2026-04-18 11:39 | 39.59639 | 2.84779 | 1544 ft | 151 kts | 238° |
| 2026-04-18 11:40 | 39.59087 | 2.83616 | 1352 ft | 151 kts | 238° |
| 2026-04-18 11:40 | 39.58536 | 2.82456 | 1155 ft | 150 kts | 238° |
| 2026-04-18 11:40 | 39.58013 | 2.81363 | 988 ft | 137 kts | 236° |
| 2026-04-18 11:40 | 39.57523 | 2.80331 | 796 ft | 131 kts | 237° |
| 2026-04-18 11:41 | 39.57049 | 2.79328 | 637 ft | 131 kts | 237° |
| 2026-04-18 11:41 | 39.56574 | 2.78326 | 451 ft | 131 kts | 237° |
| 2026-04-18 11:41 | 39.56098 | 2.77322 | 279 ft | 130 kts | 237° |
| 2026-04-18 11:41 | 39.55623 | 2.76327 | 96 ft | 129 kts | 237° |
| 2026-04-18 11:42 | 39.55168 | 2.75391 | 32 ft | 111 kts | 239° |
| 2026-04-18 11:42 | 39.54871 | 2.74753 | 33 ft | 59 kts | 245° |
| 2026-04-18 11:42 | 39.54814 | 2.74537 | 37 ft | 11 kts | 258° |
| 2026-04-18 11:42 | 39.54802 | 2.74401 | 37 ft | 13 kts | 266° |
| 2026-04-18 11:43 | 39.54802 | 2.74327 | 38 ft | 0 kts | 271° |
| 2026-04-18 11:44 | 39.54802 | 2.74287 | 38 ft | 16 kts | 271° |
| 2026-04-18 11:44 | 39.54782 | 2.74116 | 39 ft | 19 kts | 241° |
| 2026-04-18 11:44 | 39.54735 | 2.74007 | 37 ft | 10 kts | 275° |
| 2026-04-18 11:45 | 39.54759 | 2.73934 | 39 ft | 7 kts | 280° |
| 2026-04-18 11:45 | 39.54747 | 2.73875 | 39 ft | 7 kts | 249° |
| 2026-04-18 11:45 | 39.54728 | 2.73823 | 37 ft | 6 kts | 241° |
| 2026-04-18 11:45 | 39.54706 | 2.73775 | 39 ft | 6 kts | 238° |
| 2026-04-18 11:46 | 39.54684 | 2.73730 | 37 ft | 6 kts | 238° |
| 2026-04-18 11:46 | 39.54665 | 2.73685 | 39 ft | 6 kts | 243° |
| 2026-04-18 11:46 | 39.54648 | 2.73635 | 36 ft | 6 kts | 244° |
| 2026-04-18 11:46 | 39.54625 | 2.73588 | 38 ft | 6 kts | 235° |
| 2026-04-18 11:47 | 39.54600 | 2.73538 | 39 ft | 7 kts | 239° |
| 2026-04-18 11:47 | 39.54576 | 2.73484 | 39 ft | 7 kts | 238° |
| 2026-04-18 11:47 | 39.54548 | 2.73428 | 39 ft | 8 kts | 237° |
| 2026-04-18 11:47 | 39.54520 | 2.73371 | 39 ft | 7 kts | 243° |
| 2026-04-18 11:48 | 39.54538 | 2.73330 | 39 ft | 5 kts | 336° |
| 2026-04-18 11:48 | 39.54548 | 2.73325 | 39 ft | 0 kts | 342° |